createdAt,value
2023-01-19T00:00:53.198Z,99005.66
2023-01-19T00:03:20.150Z,99017.66
2023-01-19T00:05:47.046Z,99008.31
2023-01-19T00:08:17.550Z,99014.22
2023-01-19T00:10:51.070Z,99002.38
2023-01-19T00:13:18.073Z,99017.56
2023-01-19T00:15:45.721Z,98998.94
2023-01-19T00:18:12.573Z,98988.72
2023-01-19T00:20:40.396Z,98992.09
2023-01-19T00:23:08.323Z,99007.38
2023-01-19T00:25:35.815Z,99010.78
2023-01-19T00:28:02.932Z,98990.28
2023-01-19T00:30:30.025Z,98997.13
2023-01-19T00:32:56.987Z,98997.97
2023-01-19T00:35:23.871Z,99012.47
2023-01-19T00:37:50.680Z,98990.28
2023-01-19T00:40:17.919Z,99013.22
2023-01-19T00:42:44.788Z,99013.31
2023-01-19T00:45:14.371Z,99014.97
2023-01-19T00:47:41.607Z,99011.56
2023-01-19T00:50:13.287Z,99007.31
2023-01-19T00:52:41.075Z,99015.00
2023-01-19T00:55:09.083Z,99000.56
2023-01-19T00:57:36.210Z,98980.09
2023-01-19T01:00:06.475Z,98981.84
2023-01-19T01:02:34.018Z,98988.59
2023-01-19T01:05:02.861Z,98981.75
2023-01-19T01:07:30.951Z,98997.97
2023-01-19T01:09:57.756Z,98993.72
2023-01-19T01:12:24.648Z,98998.88
2023-01-19T01:14:51.472Z,99009.94
2023-01-19T01:17:24.843Z,98989.53
2023-01-19T01:19:52.574Z,98994.63
2023-01-19T01:22:19.637Z,98981.84
2023-01-19T01:24:46.492Z,98981.00
2023-01-19T01:27:13.352Z,98978.44
2023-01-19T01:29:41.259Z,98982.72
2023-01-19T01:32:08.439Z,99015.03
2023-01-19T01:34:35.390Z,98993.78
2023-01-19T01:37:02.986Z,98992.97
2023-01-19T01:39:29.868Z,98998.03
2023-01-19T01:41:57.598Z,98992.19
2023-01-19T01:45:02.031Z,98992.50
2023-01-19T01:47:40.085Z,99002.56
2023-01-19T01:50:30.641Z,98985.59
2023-01-19T01:53:12.362Z,98989.03
2023-01-19T01:55:48.059Z,99001.84
2023-01-19T01:58:16.399Z,98989.81
2023-01-19T02:01:02.092Z,99002.47
2023-01-19T02:03:29.467Z,98994.81
2023-01-19T02:06:00.275Z,98990.53
2023-01-19T02:08:51.933Z,98986.31
2023-01-19T02:11:37.986Z,98987.16
2023-01-19T02:14:06.061Z,98976.88
2023-01-19T02:16:33.769Z,98989.72
2023-01-19T02:19:01.329Z,98987.25
2023-01-19T02:21:33.981Z,98983.91
2023-01-19T02:24:03.088Z,98988.19
2023-01-19T02:26:39.973Z,98974.59
2023-01-19T02:29:13.487Z,98976.34
2023-01-19T02:31:41.159Z,98980.31
2023-01-19T02:34:11.202Z,98991.28
2023-01-19T02:36:50.661Z,98973.53
2023-01-19T02:39:20.860Z,98981.78
2023-01-19T02:41:54.893Z,98990.16
2023-01-19T02:44:23.567Z,99009.66
2023-01-19T02:46:53.430Z,98981.50
2023-01-19T02:49:20.316Z,98972.22
2023-01-19T02:51:47.263Z,98989.31
2023-01-19T02:54:28.208Z,98993.69
2023-01-19T02:57:06.532Z,98988.50
2023-01-19T02:59:52.273Z,98977.50
2023-01-19T03:03:02.681Z,98989.25
2023-01-19T03:06:05.731Z,98979.06
2023-01-19T03:09:10.267Z,98990.16
2023-01-19T03:11:41.947Z,98982.41
2023-01-19T03:14:16.450Z,98992.66
2023-01-19T03:16:50.036Z,98979.00
2023-01-19T03:19:36.857Z,98977.41
2023-01-19T03:22:15.055Z,98995.25
2023-01-19T03:24:47.702Z,98977.34
2023-01-19T03:27:27.007Z,99000.25
2023-01-19T03:30:00.383Z,99005.28
2023-01-19T03:32:39.976Z,99030.91
2023-01-19T03:35:12.779Z,99032.53
2023-01-19T03:37:42.853Z,99030.84
2023-01-19T03:40:10.877Z,99040.13
2023-01-19T03:42:39.650Z,99027.47
2023-01-19T03:45:07.922Z,99036.91
2023-01-19T03:47:35.996Z,99064.97
2023-01-19T03:50:07.051Z,99033.66
2023-01-19T03:52:33.840Z,99058.31
2023-01-19T03:55:05.763Z,99037.91
2023-01-19T03:57:32.852Z,99041.28
2023-01-19T03:59:59.664Z,99047.16
2023-01-19T04:02:27.084Z,99045.47
2023-01-19T04:04:53.876Z,99053.13
2023-01-19T04:07:20.787Z,99061.66
2023-01-19T04:09:47.686Z,99076.97
2023-01-19T04:12:14.439Z,99075.31
2023-01-19T04:14:41.212Z,99079.66
2023-01-19T04:17:09.265Z,99089.06
2023-01-19T04:19:36.185Z,99092.50
2023-01-19T04:22:03.023Z,99113.00
2023-01-19T04:24:29.769Z,99097.69
2023-01-19T04:26:57.392Z,99113.09
2023-01-19T04:29:24.535Z,99122.59
2023-01-19T04:31:51.422Z,99107.34
2023-01-19T04:34:18.433Z,99091.22
2023-01-19T04:36:46.704Z,99090.44
2023-01-19T04:39:13.548Z,99090.47
2023-01-19T04:41:40.402Z,99077.78
2023-01-19T04:44:07.170Z,99083.72
2023-01-19T04:46:34.045Z,99082.88
2023-01-19T04:49:00.961Z,99089.72
2023-01-19T04:51:28.865Z,99082.88
2023-01-19T04:53:57.404Z,99087.16
2023-01-19T04:56:24.303Z,99082.97
2023-01-19T04:58:51.315Z,99089.81
2023-01-19T05:01:18.243Z,99081.31
2023-01-19T05:03:45.197Z,99094.94
2023-01-19T05:06:12.095Z,99102.63
2023-01-19T05:08:39.520Z,99108.66
2023-01-19T05:11:06.417Z,99098.50
2023-01-19T05:13:33.534Z,99100.25
2023-01-19T05:16:01.433Z,99100.34
2023-01-19T05:18:28.623Z,99107.16
2023-01-19T05:20:55.951Z,99102.13
2023-01-19T05:23:22.712Z,99120.00
2023-01-19T05:25:49.431Z,99119.19
2023-01-19T05:28:17.162Z,99113.28
2023-01-19T05:30:44.090Z,99131.25
2023-01-19T05:33:10.825Z,99121.94
2023-01-19T05:35:37.633Z,99139.00
2023-01-19T05:38:04.672Z,99133.94
2023-01-19T05:40:31.470Z,99134.78
2023-01-19T05:43:01.965Z,99139.16
2023-01-19T05:45:29.027Z,99129.88
2023-01-19T05:47:56.095Z,99138.41
2023-01-19T05:50:23.142Z,99143.53
2023-01-19T05:52:49.944Z,99142.66
2023-01-19T05:55:16.796Z,99165.69
2023-01-19T05:57:43.956Z,99165.66
2023-01-19T06:00:11.482Z,99163.13
2023-01-19T06:02:38.381Z,99182.69
2023-01-19T06:05:05.848Z,99179.34
2023-01-19T06:07:32.604Z,99179.34
2023-01-19T06:09:59.349Z,99164.84
2023-01-19T06:12:26.375Z,99176.81
2023-01-19T06:14:53.140Z,99174.28
2023-01-19T06:17:20.494Z,99182.00
2023-01-19T06:19:47.205Z,99182.84
2023-01-19T06:22:14.014Z,99176.94
2023-01-19T06:24:40.803Z,99205.06
2023-01-19T06:27:07.924Z,99209.31
2023-01-19T06:29:34.674Z,99207.66
2023-01-19T06:32:01.521Z,99206.81
2023-01-19T06:34:29.039Z,99216.16
2023-01-19T06:36:56.534Z,99214.50
2023-01-19T06:39:23.786Z,99211.19
2023-01-19T06:41:51.013Z,99206.09
2023-01-19T06:44:17.763Z,99202.75
2023-01-19T06:46:44.622Z,99192.56
2023-01-19T06:49:11.394Z,99197.72
2023-01-19T06:51:38.208Z,99201.13
2023-01-19T06:54:05.690Z,99203.78
2023-01-19T06:56:32.632Z,99205.47
2023-01-19T06:58:59.409Z,99211.47
2023-01-19T07:01:27.081Z,99223.41
2023-01-19T07:03:54.601Z,99219.25
2023-01-19T07:06:21.595Z,99219.25
2023-01-19T07:08:48.590Z,99219.28
2023-01-19T07:11:25.919Z,99227.00
2023-01-19T07:13:58.195Z,99224.44
2023-01-19T07:16:25.491Z,99215.94
2023-01-19T07:18:52.408Z,99211.72
2023-01-19T07:21:19.433Z,99238.09
2023-01-19T07:23:49.793Z,99243.28
2023-01-19T07:26:19.911Z,99233.09
2023-01-19T07:28:48.335Z,99237.34
2023-01-19T07:31:16.006Z,99234.78
2023-01-19T07:33:42.906Z,99240.78
2023-01-19T07:36:10.523Z,99243.34
2023-01-19T07:38:37.579Z,99259.53
2023-01-19T07:41:06.810Z,99278.34
2023-01-19T07:43:34.581Z,99275.75
2023-01-19T07:46:03.439Z,99283.44
2023-01-19T07:48:30.314Z,99280.03
2023-01-19T07:51:01.899Z,99277.53
2023-01-19T07:53:28.762Z,99275.84
2023-01-19T07:55:57.058Z,99292.91
2023-01-19T07:58:25.347Z,99285.34
2023-01-19T08:00:52.732Z,99267.41
2023-01-19T08:03:20.314Z,99287.91
2023-01-19T08:05:51.688Z,99304.16
2023-01-19T08:08:19.587Z,99313.53
2023-01-19T08:10:49.957Z,99301.69
2023-01-19T08:13:16.864Z,99304.25
2023-01-19T08:15:43.694Z,99295.75
2023-01-19T08:18:11.712Z,99303.41
2023-01-19T08:20:38.646Z,99314.53
2023-01-19T08:23:05.638Z,99320.53
2023-01-19T08:25:35.043Z,99320.53
2023-01-19T08:28:02.947Z,99323.13
2023-01-19T08:30:30.474Z,99331.69
2023-01-19T08:33:04.222Z,99341.06
2023-01-19T08:35:32.394Z,99345.41
2023-01-19T08:38:01.561Z,99347.94
2023-01-19T08:40:30.109Z,99341.97
2023-01-19T08:43:03.759Z,99342.97
2023-01-19T08:45:31.238Z,99334.41
2023-01-19T08:48:01.460Z,99331.03
2023-01-19T08:50:30.148Z,99332.75
2023-01-19T08:52:58.863Z,99330.13
2023-01-19T08:55:26.510Z,99331.03
2023-01-19T08:57:54.701Z,99322.53
2023-01-19T09:00:22.385Z,99320.81
2023-01-19T09:02:49.294Z,99328.47
2023-01-19T09:05:16.201Z,99321.63
2023-01-19T09:07:45.566Z,99331.03
2023-01-19T09:10:12.771Z,99319.91
2023-01-19T09:12:39.770Z,99325.91
2023-01-19T09:15:07.385Z,99327.63
2023-01-19T09:17:34.507Z,99327.63
2023-01-19T09:20:01.303Z,99322.53
2023-01-19T09:22:28.474Z,99333.59
2023-01-19T09:24:55.282Z,99315.75
2023-01-19T09:27:22.254Z,99311.53
2023-01-19T09:29:52.652Z,99305.53
2023-01-19T09:32:20.995Z,99305.53
2023-01-19T09:34:47.951Z,99304.72
2023-01-19T09:37:16.170Z,99296.16
2023-01-19T09:39:42.992Z,99308.03
2023-01-19T09:42:24.847Z,99315.84
2023-01-19T09:44:54.462Z,99315.75
2023-01-19T09:47:27.253Z,99314.97
2023-01-19T09:49:59.967Z,99327.72
2023-01-19T09:52:26.946Z,99334.47
2023-01-19T09:54:59.209Z,99324.25
2023-01-19T09:57:27.276Z,99327.63
2023-01-19T09:59:59.601Z,99315.69
2023-01-19T10:02:49.578Z,99320.13
2023-01-19T10:05:31.519Z,99320.81
2023-01-19T10:08:19.767Z,99331.97
2023-01-19T10:10:53.086Z,99326.78
2023-01-19T10:13:22.680Z,99315.69
2023-01-19T10:16:20.752Z,99329.41
2023-01-19T10:18:51.711Z,99327.53
2023-01-19T10:21:22.751Z,99327.47
2023-01-19T10:23:54.706Z,99328.28
2023-01-19T10:26:24.145Z,99328.25
2023-01-19T10:28:55.480Z,99320.53
2023-01-19T10:31:24.599Z,99315.38
2023-01-19T10:33:52.816Z,99310.19
2023-01-19T10:36:29.854Z,99300.91
2023-01-19T10:38:58.042Z,99302.47
2023-01-19T10:41:35.159Z,99303.31
2023-01-19T10:44:04.379Z,99303.28
2023-01-19T10:46:42.377Z,99317.75
2023-01-19T10:49:23.954Z,99314.44
2023-01-19T10:51:51.158Z,99310.88
2023-01-19T10:54:18.147Z,99319.69
2023-01-19T10:56:53.423Z,99321.47
2023-01-19T10:59:51.000Z,99325.59
2023-01-19T11:02:27.683Z,99328.78
2023-01-19T11:05:21.175Z,99324.84
2023-01-19T11:07:47.986Z,99325.81
2023-01-19T11:10:17.681Z,99325.16
2023-01-19T11:12:56.476Z,99330.19
2023-01-19T11:15:28.544Z,99349.41
2023-01-19T11:17:56.015Z,99348.31
2023-01-19T11:20:26.019Z,99351.63
2023-01-19T11:23:21.488Z,99331.22
2023-01-19T11:25:50.361Z,99330.19
2023-01-19T11:28:40.630Z,99338.84
2023-01-19T11:31:10.526Z,99341.34
2023-01-19T11:33:58.831Z,99342.34
2023-01-19T11:36:34.742Z,99349.00
2023-01-19T11:39:45.753Z,99355.06
2023-01-19T11:42:13.572Z,99353.94
2023-01-19T11:44:44.557Z,99355.66
2023-01-19T11:47:30.570Z,99348.91
2023-01-19T11:50:06.733Z,99340.25
2023-01-19T11:52:43.310Z,99332.69
2023-01-19T11:55:37.060Z,99354.03
2023-01-19T11:58:05.435Z,99355.53
2023-01-19T12:00:40.467Z,99370.91
2023-01-19T12:03:13.225Z,99373.31
2023-01-19T12:05:45.585Z,99382.63
2023-01-19T12:08:18.745Z,99367.25
2023-01-19T12:10:47.956Z,99368.91
2023-01-19T12:13:26.736Z,99391.06
2023-01-19T12:16:22.323Z,99389.25
2023-01-19T12:18:56.151Z,99385.72
2023-01-19T12:21:22.959Z,99392.47
2023-01-19T12:24:07.531Z,99407.91
2023-01-19T12:26:43.701Z,99407.78
2023-01-19T12:29:14.109Z,99405.19
2023-01-19T12:31:43.201Z,99396.63
2023-01-19T12:34:26.014Z,99414.69
2023-01-19T12:36:57.867Z,99416.34
2023-01-19T12:39:25.962Z,99419.03
2023-01-19T12:42:06.784Z,99421.44
2023-01-19T12:44:34.487Z,99419.59
2023-01-19T12:47:20.320Z,99410.34
2023-01-19T12:49:51.019Z,99417.94
2023-01-19T12:52:28.097Z,99414.56
2023-01-19T12:55:02.852Z,99411.19
2023-01-19T12:57:33.447Z,99394.97
2023-01-19T13:00:21.317Z,99400.88
2023-01-19T13:02:55.192Z,99404.28
2023-01-19T13:05:24.491Z,99416.09
2023-01-19T13:08:04.920Z,99413.53
2023-01-19T13:10:50.554Z,99406.78
2023-01-19T13:13:27.940Z,99407.47
2023-01-19T13:15:56.427Z,99395.56
2023-01-19T13:18:29.822Z,99398.13
2023-01-19T13:21:03.709Z,99381.84
2023-01-19T13:23:51.343Z,99378.50
2023-01-19T13:26:23.391Z,99379.28
2023-01-19T13:28:54.962Z,99380.03
2023-01-19T13:31:24.138Z,99376.53
2023-01-19T13:34:00.134Z,99389.28
2023-01-19T13:36:35.542Z,99396.94
2023-01-19T13:39:08.317Z,99390.09
2023-01-19T13:41:41.129Z,99389.19
2023-01-19T13:44:30.719Z,99380.66
2023-01-19T13:46:59.783Z,99377.81
2023-01-19T13:49:34.112Z,99379.59
2023-01-19T13:52:27.227Z,99384.72
2023-01-19T13:55:06.400Z,99410.03
2023-01-19T13:57:39.492Z,99420.22
2023-01-19T14:00:07.221Z,99427.94
2023-01-19T14:02:34.446Z,99428.72
2023-01-19T14:05:23.788Z,99460.41
2023-01-19T14:08:08.939Z,99456.84
2023-01-19T14:10:38.524Z,99444.75
2023-01-19T14:13:17.106Z,99443.91
2023-01-19T14:15:44.781Z,99462.63
2023-01-19T14:18:14.266Z,99460.09
2023-01-19T14:20:41.498Z,99448.13
2023-01-19T14:23:44.685Z,99466.94
2023-01-19T14:26:46.662Z,99456.72
2023-01-19T14:29:27.069Z,99454.91
2023-01-19T14:32:23.058Z,99449.88
2023-01-19T14:34:53.719Z,99451.47
2023-01-19T14:37:29.680Z,99448.97
2023-01-19T14:40:15.233Z,99449.13
2023-01-19T14:43:03.160Z,99455.03
2023-01-19T14:45:41.359Z,99448.28
2023-01-19T14:48:18.802Z,99448.16
2023-01-19T14:51:01.930Z,99451.53
2023-01-19T14:53:36.663Z,99456.56
2023-01-19T14:56:05.714Z,99455.66
2023-01-19T14:58:34.655Z,99453.06
2023-01-19T15:01:02.817Z,99431.84
2023-01-19T15:03:44.287Z,99418.22
2023-01-19T15:06:17.575Z,99431.06
2023-01-19T15:08:45.786Z,99431.00
2023-01-19T15:11:27.524Z,99428.50
2023-01-19T15:13:55.499Z,99435.19
2023-01-19T15:16:23.896Z,99453.06
2023-01-19T15:18:50.788Z,99459.03
2023-01-19T15:21:20.205Z,99454.03
2023-01-19T15:23:47.704Z,99448.91
2023-01-19T15:26:18.006Z,99460.88
2023-01-19T15:28:45.912Z,99462.50
2023-01-19T15:31:21.870Z,99462.63
2023-01-19T15:33:48.851Z,99474.44
2023-01-19T15:36:18.461Z,99465.88
2023-01-19T15:38:46.020Z,99470.09
2023-01-19T15:41:40.052Z,99463.53
2023-01-19T15:44:08.565Z,99454.81
2023-01-19T15:46:35.355Z,99442.91
2023-01-19T15:49:02.202Z,99444.59
2023-01-19T15:51:29.042Z,99434.41
2023-01-19T15:53:56.214Z,99439.44
2023-01-19T15:56:28.236Z,99437.75
2023-01-19T15:58:55.619Z,99433.44
2023-01-19T16:01:31.356Z,99436.78
2023-01-19T16:04:01.271Z,99422.38
2023-01-19T16:06:29.236Z,99418.13
2023-01-19T16:09:01.282Z,99428.31
2023-01-19T16:11:33.507Z,99419.03
2023-01-19T16:14:00.243Z,99415.81
2023-01-19T16:16:28.178Z,99411.38
2023-01-19T16:18:56.139Z,99391.81
2023-01-19T16:21:23.832Z,99388.38
2023-01-19T16:23:51.424Z,99385.75
2023-01-19T16:26:35.329Z,99380.81
2023-01-19T16:29:08.761Z,99384.06
2023-01-19T16:31:40.453Z,99382.31
2023-01-19T16:34:08.155Z,99382.31
2023-01-19T16:36:36.880Z,99391.66
2023-01-19T16:39:09.388Z,99395.06
2023-01-19T16:41:36.563Z,99394.16
2023-01-19T16:44:04.490Z,99385.59
2023-01-19T16:46:36.664Z,99386.44
2023-01-19T16:49:11.574Z,99392.41
2023-01-19T16:51:38.765Z,99375.38
2023-01-19T16:54:06.214Z,99390.69
2023-01-19T16:56:33.335Z,99378.75
2023-01-19T16:59:00.452Z,99374.47
2023-01-19T17:01:29.256Z,99383.00
2023-01-19T17:03:56.713Z,99388.88
2023-01-19T17:06:24.997Z,99382.03
2023-01-19T17:08:53.144Z,99363.38
2023-01-19T17:11:32.094Z,99371.94
2023-01-19T17:14:00.870Z,99378.69
2023-01-19T17:16:29.235Z,99375.22
2023-01-19T17:19:01.126Z,99371.03
2023-01-19T17:21:28.443Z,99358.16
2023-01-19T17:23:56.678Z,99359.03
2023-01-19T17:26:42.923Z,99351.41
2023-01-19T17:29:10.417Z,99354.78
2023-01-19T17:31:37.455Z,99351.31
2023-01-19T17:34:04.966Z,99356.41
2023-01-19T17:36:33.006Z,99370.06
2023-01-19T17:39:04.602Z,99367.59
2023-01-19T17:41:33.424Z,99363.44
2023-01-19T17:44:01.146Z,99371.09
2023-01-19T17:46:29.806Z,99381.28
2023-01-19T17:49:04.441Z,99377.09
2023-01-19T17:51:32.212Z,99373.66
2023-01-19T17:53:59.491Z,99373.66
2023-01-19T17:56:29.916Z,99375.38
2023-01-19T17:58:58.104Z,99370.28
2023-01-19T18:01:37.957Z,99370.47
2023-01-19T18:04:05.541Z,99368.66
2023-01-19T18:06:32.741Z,99383.16
2023-01-19T18:08:59.639Z,99375.38
2023-01-19T18:11:27.145Z,99375.38
2023-01-19T18:13:54.330Z,99365.19
2023-01-19T18:16:26.458Z,99367.84
2023-01-19T18:18:54.393Z,99356.69
2023-01-19T18:21:22.262Z,99364.34
2023-01-19T18:23:50.971Z,99354.97
2023-01-19T18:26:21.026Z,99348.19
2023-01-19T18:28:49.163Z,99353.22
2023-01-19T18:31:18.449Z,99350.69
2023-01-19T18:33:45.689Z,99351.53
2023-01-19T18:36:12.661Z,99359.19
2023-01-19T18:38:40.383Z,99349.88
2023-01-19T18:41:12.917Z,99343.94
2023-01-19T18:43:40.063Z,99346.53
2023-01-19T18:46:07.914Z,99347.38
2023-01-19T18:48:35.337Z,99345.69
2023-01-19T18:51:13.942Z,99342.44
2023-01-19T18:53:41.560Z,99339.78
2023-01-19T18:56:11.171Z,99332.97
2023-01-19T18:58:39.108Z,99337.22
2023-01-19T19:01:21.083Z,99327.09
2023-01-19T19:03:48.278Z,99320.22
2023-01-19T19:06:16.867Z,99334.69
2023-01-19T19:08:44.238Z,99335.53
2023-01-19T19:11:14.009Z,99336.38
2023-01-19T19:13:41.159Z,99341.50
2023-01-19T19:16:10.490Z,99343.25
2023-01-19T19:18:38.806Z,99348.34
2023-01-19T19:21:07.500Z,99332.16
2023-01-19T19:23:34.910Z,99342.34
2023-01-19T19:26:10.461Z,99331.41
2023-01-19T19:28:39.504Z,99355.16
2023-01-19T19:31:12.772Z,99357.81
2023-01-19T19:33:40.929Z,99357.72
2023-01-19T19:36:09.271Z,99359.44
2023-01-19T19:38:36.998Z,99353.50
2023-01-19T19:41:08.726Z,99353.63
2023-01-19T19:43:36.518Z,99346.81
2023-01-19T19:46:04.922Z,99343.41
2023-01-19T19:48:32.045Z,99350.25
2023-01-19T19:51:17.487Z,99337.59
2023-01-19T19:53:50.833Z,99342.72
2023-01-19T19:56:21.258Z,99353.72
2023-01-19T19:58:49.011Z,99350.38
2023-01-19T20:01:21.108Z,99348.63
2023-01-19T20:03:50.101Z,99337.56
2023-01-19T20:06:22.843Z,99350.38
2023-01-19T20:08:51.205Z,99343.56
2023-01-19T20:11:27.372Z,99352.13
2023-01-19T20:13:54.732Z,99342.72
2023-01-19T20:16:23.202Z,99350.44
2023-01-19T20:18:54.347Z,99341.13
2023-01-19T20:21:30.359Z,99325.00
2023-01-19T20:24:01.125Z,99315.66
2023-01-19T20:26:32.441Z,99316.56
2023-01-19T20:29:02.998Z,99326.75
2023-01-19T20:31:32.480Z,99309.72
2023-01-19T20:34:01.592Z,99309.72
2023-01-19T20:36:28.971Z,99304.59
2023-01-19T20:38:57.187Z,99308.91
2023-01-19T20:41:26.279Z,99308.16
2023-01-19T20:43:53.171Z,99309.88
2023-01-19T20:46:20.025Z,99312.47
2023-01-19T20:48:50.891Z,99313.34
2023-01-19T20:51:21.035Z,99316.88
2023-01-19T20:53:48.498Z,99330.47
2023-01-19T20:56:15.801Z,99316.88
2023-01-19T20:58:42.875Z,99317.78
2023-01-19T21:01:22.707Z,99329.84
2023-01-19T21:03:50.506Z,99328.94
2023-01-19T21:06:18.693Z,99331.53
2023-01-19T21:08:46.083Z,99323.91
2023-01-19T21:11:13.362Z,99314.63
2023-01-19T21:13:40.253Z,99310.41
2023-01-19T21:16:07.736Z,99312.13
2023-01-19T21:18:34.858Z,99314.72
2023-01-19T21:21:01.636Z,99307.97
2023-01-19T21:23:29.046Z,99322.53
2023-01-19T21:25:58.397Z,99314.03
2023-01-19T21:28:26.770Z,99318.34
2023-01-19T21:30:54.938Z,99329.34
2023-01-19T21:33:22.814Z,99337.09
2023-01-19T21:35:51.411Z,99325.19
2023-01-19T21:38:18.291Z,99321.84
2023-01-19T21:40:45.388Z,99318.44
2023-01-19T21:43:13.569Z,99317.69
2023-01-19T21:45:55.492Z,99312.66
2023-01-19T21:48:22.501Z,99315.22
2023-01-19T21:50:58.418Z,99305.97
2023-01-19T21:53:25.391Z,99305.91
2023-01-19T21:55:52.362Z,99298.28
2023-01-19T21:58:19.141Z,99298.31
2023-01-19T22:00:46.008Z,99299.25
2023-01-19T22:03:12.924Z,99311.16
2023-01-19T22:05:39.780Z,99302.69
2023-01-19T22:08:06.761Z,99301.94
2023-01-19T22:10:37.487Z,99303.69
2023-01-19T22:13:06.623Z,99311.34
2023-01-19T22:15:33.637Z,99312.22
2023-01-19T22:18:00.552Z,99309.69
2023-01-19T22:20:27.441Z,99316.53
2023-01-19T22:22:54.255Z,99311.47
2023-01-19T22:25:24.717Z,99312.31
2023-01-19T22:27:51.448Z,99301.28
2023-01-19T22:30:18.568Z,99297.91
2023-01-19T22:32:45.404Z,99301.44
2023-01-19T22:35:12.481Z,99297.25
2023-01-19T22:37:39.403Z,99296.41
2023-01-19T22:40:06.724Z,99304.06
2023-01-19T22:42:33.515Z,99293.91
2023-01-19T22:45:00.296Z,99300.78
2023-01-19T22:47:27.101Z,99301.63
2023-01-19T22:49:53.886Z,99296.59
2023-01-19T22:52:20.660Z,99303.41
2023-01-19T22:54:47.430Z,99305.16
2023-01-19T22:57:14.323Z,99302.66
2023-01-19T22:59:41.616Z,99307.81
2023-01-19T23:02:09.281Z,99314.66
2023-01-19T23:04:36.247Z,99317.31
2023-01-19T23:07:03.005Z,99324.25
2023-01-19T23:09:29.886Z,99337.09
2023-01-19T23:11:56.649Z,99324.31
2023-01-19T23:14:23.484Z,99317.50
2023-01-19T23:16:50.333Z,99310.72
2023-01-19T23:19:17.877Z,99321.03
2023-01-19T23:21:45.432Z,99333.84
2023-01-19T23:24:12.392Z,99315.16
2023-01-19T23:26:39.375Z,99322.84
2023-01-19T23:29:09.807Z,99329.69
2023-01-19T23:31:38.522Z,99321.19
2023-01-19T23:34:08.309Z,99326.38
2023-01-19T23:36:38.085Z,99335.75
2023-01-19T23:39:13.162Z,99311.03
2023-01-19T23:41:39.862Z,99321.19
2023-01-19T23:44:06.657Z,99321.09
2023-01-19T23:46:33.508Z,99332.97
2023-01-19T23:49:00.384Z,99327.03
2023-01-19T23:51:29.520Z,99331.34
2023-01-19T23:53:57.291Z,99328.75
2023-01-19T23:56:32.858Z,99332.25
2023-01-19T23:59:05.284Z,99347.59
